createdAt,value
2019-05-06T00:02:13.838Z,3.80
2019-05-06T00:07:16.990Z,3.70
2019-05-06T00:12:19.932Z,3.10
2019-05-06T00:17:23.945Z,3.70
2019-05-06T00:22:27.234Z,3.77
2019-05-06T00:27:56.109Z,3.55
2019-05-06T00:32:59.175Z,3.17
2019-05-06T00:38:04.382Z,3.35
2019-05-06T00:43:08.615Z,3.75
2019-05-06T00:48:13.854Z,4.05
2019-05-06T00:53:18.783Z,3.43
2019-05-06T00:58:23.779Z,3.10
2019-05-06T01:03:28.690Z,2.90
2019-05-06T01:08:31.951Z,3.15
2019-05-06T01:13:40.540Z,2.40
2019-05-06T01:18:43.610Z,2.50
2019-05-06T01:23:46.848Z,1.90
2019-05-06T01:28:50.369Z,2.08
2019-05-06T01:33:53.668Z,2.17
2019-05-06T01:39:31.619Z,2.27
2019-05-06T01:44:34.581Z,1.85
2019-05-06T01:49:37.559Z,1.80
2019-05-06T01:54:40.610Z,1.90
2019-05-06T01:59:44.372Z,1.92
2019-05-06T02:04:47.485Z,2.02
2019-05-06T02:09:50.523Z,1.80
2019-05-06T02:14:54.346Z,1.95
2019-05-06T02:19:57.427Z,2.20
2019-05-06T02:25:05.980Z,2.33
2019-05-06T02:30:25.211Z,1.75
2019-05-06T02:35:41.509Z,2.08
2019-05-06T02:40:44.536Z,2.00
2019-05-06T02:45:47.489Z,2.12
2019-05-06T02:51:03.864Z,2.42
2019-05-06T02:56:07.285Z,2.12
2019-05-06T03:01:13.392Z,2.35
2019-05-06T03:06:15.413Z,2.85
2019-05-06T03:11:18.456Z,2.50
2019-05-06T03:16:23.783Z,2.12
2019-05-06T03:21:45.063Z,1.87
2019-05-06T03:26:56.136Z,2.08
2019-05-06T03:36:59.726Z,2.00
2019-05-06T03:42:04.675Z,2.65
2019-05-06T03:47:27.165Z,2.15
2019-05-06T03:52:30.157Z,2.72
2019-05-06T03:57:36.173Z,2.13
2019-05-06T04:02:39.912Z,2.20
2019-05-06T04:07:46.109Z,2.65
2019-05-06T04:12:53.552Z,2.37
2019-05-06T04:17:59.911Z,2.35
2019-05-06T04:23:23.527Z,2.30
2019-05-06T04:28:29.289Z,2.02
2019-05-06T04:33:33.517Z,2.30
2019-05-06T04:38:37.047Z,2.87
2019-05-06T04:43:40.421Z,2.08
2019-05-06T04:48:45.397Z,2.57
2019-05-06T04:53:48.454Z,1.92
2019-05-06T04:58:53.910Z,1.87
2019-05-06T05:03:56.878Z,1.57
2019-05-06T05:09:02.570Z,1.90
2019-05-06T05:14:25.940Z,2.20
2019-05-06T05:19:32.684Z,2.17
2019-05-06T05:24:37.866Z,2.02
2019-05-06T05:29:42.367Z,2.08
2019-05-06T05:34:45.818Z,2.30
2019-05-06T05:39:49.300Z,1.80
2019-05-06T05:44:53.467Z,1.90
2019-05-06T05:50:22.823Z,1.92
2019-05-06T05:55:26.561Z,2.05
2019-05-06T06:00:32.472Z,2.12
2019-05-06T06:10:49.536Z,1.98
2019-05-06T06:16:02.882Z,1.60
2019-05-06T06:21:32.027Z,2.33
2019-05-06T06:26:34.983Z,1.52
2019-05-06T06:32:09.374Z,1.85
2019-05-06T06:37:33.054Z,2.15
2019-05-06T06:42:36.028Z,1.85
2019-05-06T06:47:39.180Z,1.90
2019-05-06T06:52:42.931Z,1.90
2019-05-06T06:58:22.600Z,1.80
2019-05-06T07:03:37.772Z,1.83
2019-05-06T07:08:42.615Z,2.05
2019-05-06T07:13:53.244Z,2.12
2019-05-06T07:18:56.616Z,2.20
2019-05-06T07:23:59.578Z,1.47
2019-05-06T07:29:03.901Z,2.08
2019-05-06T07:34:07.728Z,1.85
2019-05-06T07:39:14.750Z,1.37
2019-05-06T07:44:33.339Z,1.62
2019-05-06T07:49:36.560Z,1.70
2019-05-06T07:54:39.572Z,1.22
2019-05-06T07:59:43.009Z,1.45
2019-05-06T08:04:46.156Z,2.30
2019-05-06T08:09:49.120Z,1.40
2019-05-06T08:14:52.501Z,4.08
2019-05-06T08:19:55.872Z,1.52
2019-05-06T08:24:58.965Z,1.87
2019-05-06T08:30:02.624Z,1.32
2019-05-06T08:35:06.182Z,1.55
2019-05-06T08:40:12.000Z,2.08
2019-05-06T08:45:15.501Z,1.57
2019-05-06T08:50:43.902Z,1.77
2019-05-06T08:55:47.563Z,1.98
2019-05-06T09:00:57.615Z,1.10
2019-05-06T09:06:02.998Z,2.10
2019-05-06T09:11:05.586Z,1.40
2019-05-06T09:16:08.673Z,1.50
2019-05-06T09:21:12.268Z,1.25
2019-05-06T09:26:18.287Z,1.52
2019-05-06T09:31:24.931Z,1.70
2019-05-06T09:36:39.824Z,1.22
2019-05-06T09:41:32.767Z,1.42
2019-05-06T09:46:35.786Z,1.20
2019-05-06T09:51:39.456Z,1.67
2019-05-06T09:56:47.740Z,1.72
2019-05-06T10:01:52.855Z,2.05
2019-05-06T10:06:59.778Z,2.05
2019-05-06T10:12:02.045Z,1.30
2019-05-06T10:17:05.549Z,1.45
2019-05-06T10:22:08.521Z,1.27
2019-05-06T10:27:12.084Z,1.72
2019-05-06T10:32:27.064Z,1.75
2019-05-06T10:37:42.244Z,1.32
2019-05-06T10:43:13.215Z,1.52
2019-05-06T10:48:16.182Z,1.77
2019-05-06T10:53:23.632Z,1.80
2019-05-06T10:58:26.762Z,1.80
2019-05-06T11:03:29.732Z,1.50
2019-05-06T11:08:32.842Z,1.63
2019-05-06T11:13:36.012Z,1.80
2019-05-06T11:18:39.098Z,1.80
2019-05-06T11:23:42.351Z,2.02
2019-05-06T11:28:49.326Z,1.65
2019-05-06T11:34:00.166Z,2.20
2019-05-06T11:39:05.268Z,1.70
2019-05-06T11:44:09.178Z,2.30
2019-05-06T11:49:12.625Z,1.70
2019-05-06T11:54:20.337Z,1.47
2019-05-06T11:59:22.692Z,1.32
2019-05-06T12:04:26.087Z,2.07
2019-05-06T12:09:29.146Z,1.80
2019-05-06T12:14:32.129Z,1.65
2019-05-06T12:19:35.128Z,1.67
2019-05-06T12:24:38.087Z,1.75
2019-05-06T12:29:42.857Z,1.45
2019-05-06T12:34:46.208Z,1.50
2019-05-06T12:39:53.558Z,1.67
2019-05-06T12:45:14.886Z,1.60
2019-05-06T12:50:18.024Z,1.75
2019-05-06T12:55:25.207Z,1.98
2019-05-06T13:00:30.829Z,1.77
2019-05-06T13:05:33.820Z,2.10
2019-05-06T13:10:36.773Z,2.05
2019-05-06T13:15:39.897Z,2.75
2019-05-06T13:20:50.077Z,2.30
2019-05-06T13:25:48.046Z,2.37
2019-05-06T13:30:53.174Z,2.02
2019-05-06T13:35:56.501Z,2.35
2019-05-06T13:40:59.874Z,1.82
2019-05-06T13:46:07.388Z,2.45
2019-05-06T13:51:14.279Z,2.52
2019-05-06T14:01:22.933Z,1.67
2019-05-06T14:06:26.540Z,2.27
2019-05-06T14:11:29.886Z,2.58
2019-05-06T14:16:33.572Z,2.33
2019-05-06T14:21:36.675Z,2.20
2019-05-06T14:26:45.753Z,2.10
2019-05-06T14:31:52.490Z,1.98
2019-05-06T14:41:57.830Z,2.33
2019-05-06T14:47:09.227Z,2.20
2019-05-06T14:52:13.158Z,2.47
2019-05-06T14:57:17.594Z,2.15
2019-05-06T15:02:26.083Z,2.05
2019-05-06T15:07:29.010Z,2.15
2019-05-06T15:12:33.436Z,2.32
2019-05-06T15:17:36.975Z,2.77
2019-05-06T15:22:42.062Z,2.60
2019-05-06T15:27:45.294Z,2.10
2019-05-06T15:32:48.294Z,2.42
2019-05-06T15:38:02.775Z,1.87
2019-05-06T15:43:05.865Z,1.70
2019-05-06T15:48:08.942Z,2.02
2019-05-06T15:53:12.631Z,1.92
2019-05-06T15:58:15.768Z,2.35
2019-05-06T16:03:18.770Z,2.03
2019-05-06T16:08:24.234Z,2.37
2019-05-06T16:13:26.830Z,2.52
2019-05-06T16:18:29.837Z,2.42
2019-05-06T16:23:42.312Z,2.98
2019-05-06T16:28:45.565Z,3.77
2019-05-06T16:33:48.647Z,3.40
2019-05-06T16:38:52.556Z,3.60
2019-05-06T16:43:57.340Z,2.95
2019-05-06T16:49:02.307Z,2.92
2019-05-06T16:54:05.284Z,2.95
2019-05-06T16:59:08.435Z,2.70
2019-05-06T17:04:19.583Z,3.30
2019-05-06T17:09:27.038Z,3.62
2019-05-06T17:14:27.437Z,3.22
2019-05-06T17:19:32.377Z,3.67
2019-05-06T17:24:35.588Z,4.85
2019-05-06T17:29:55.467Z,7.15
2019-05-06T17:34:58.684Z,6.95
2019-05-06T17:40:07.960Z,5.97
2019-05-06T17:45:25.914Z,5.87
2019-05-06T17:50:28.845Z,6.30
2019-05-06T17:55:32.795Z,5.12
2019-05-06T18:00:36.115Z,4.87
2019-05-06T18:05:39.108Z,5.70
2019-05-06T18:10:42.722Z,6.05
2019-05-06T18:15:45.968Z,5.33
2019-05-06T18:20:48.990Z,5.55
2019-05-06T18:25:53.025Z,6.05
2019-05-06T18:30:56.228Z,5.03
2019-05-06T18:35:59.279Z,5.55
2019-05-06T18:41:02.363Z,5.87
2019-05-06T18:46:05.402Z,5.53
2019-05-06T18:51:08.605Z,7.12
2019-05-06T18:56:12.738Z,6.20
2019-05-06T19:01:15.956Z,6.37
2019-05-06T19:06:19.076Z,6.75
2019-05-06T19:11:22.419Z,6.47
2019-05-06T19:16:25.693Z,7.95
2019-05-06T19:21:28.963Z,9.13
2019-05-06T19:26:32.730Z,8.78
2019-05-06T19:31:36.152Z,9.48
2019-05-06T19:36:39.161Z,10.40
2019-05-06T19:41:42.293Z,11.48
2019-05-06T19:46:45.336Z,12.30
2019-05-06T19:51:48.466Z,11.60
2019-05-06T19:56:52.720Z,12.58
2019-05-06T20:01:56.201Z,12.90
2019-05-06T20:07:05.244Z,13.58
2019-05-06T20:12:14.330Z,14.20
2019-05-06T20:17:17.348Z,10.85
2019-05-06T20:22:20.458Z,9.10
2019-05-06T20:27:23.685Z,7.97
2019-05-06T20:32:26.957Z,7.40
2019-05-06T20:37:30.092Z,7.87
2019-05-06T20:42:33.047Z,6.12
2019-05-06T20:47:36.598Z,6.60
2019-05-06T20:52:42.287Z,6.87
2019-05-06T20:57:44.993Z,6.10
2019-05-06T21:02:47.973Z,6.37
2019-05-06T21:07:52.623Z,5.90
2019-05-06T21:12:55.795Z,6.90
2019-05-06T21:18:03.602Z,6.25
2019-05-06T21:23:04.145Z,5.63
2019-05-06T21:28:07.181Z,6.83
2019-05-06T21:33:12.247Z,6.40
2019-05-06T21:38:15.191Z,4.92
2019-05-06T21:43:18.298Z,5.22
2019-05-06T21:48:22.221Z,5.40
2019-05-06T21:53:25.261Z,5.37
2019-05-06T21:58:28.236Z,5.72
2019-05-06T22:03:32.654Z,4.70
2019-05-06T22:08:35.906Z,5.15
2019-05-06T22:13:38.995Z,4.75
2019-05-06T22:18:43.226Z,5.17
2019-05-06T22:23:57.755Z,5.50
2019-05-06T22:29:02.059Z,5.12
2019-05-06T22:34:05.220Z,5.03
2019-05-06T22:39:08.235Z,5.12
2019-05-06T22:44:14.032Z,5.17
2019-05-06T22:49:16.033Z,5.90
2019-05-06T22:54:18.988Z,4.95
2019-05-06T22:59:25.003Z,4.80
2019-05-06T23:04:29.760Z,6.25
2019-05-06T23:09:32.776Z,5.85
2019-05-06T23:14:37.224Z,5.67
2019-05-06T23:19:42.623Z,6.33
2019-05-06T23:24:45.295Z,6.30
2019-05-06T23:29:48.646Z,6.78
2019-05-06T23:34:52.346Z,5.87
2019-05-06T23:40:52.164Z,5.65
2019-05-06T23:46:52.830Z,6.00
2019-05-06T23:52:52.013Z,5.20
2019-05-06T23:57:53.675Z,5.37
